Time;durP1;ratioP1;P1;durP2;ratioP2;P2;SDS_P1;SDS_P2;PMS_P1;PMS_P2;Temp;Humidity;BMP_temperature;BMP_pressure;BME280_temperature;BME280_humidity;BME280_pressure;Samples;Min_cycle;Max_cycle;Signal;HPM_P1;HPM_P2
2023/07/24 00:00:21;;;;;;;;;;;;;;;25.51;60.92;97169.48;624683;227;64804;-65
2023/07/24 00:02:49;;;;;;;;;;;;;;;25.51;59.78;97172.17;624694;227;63323;-65
2023/07/24 00:05:16;;;;;;;;;;;;;;;25.50;60.63;97170.59;624724;227;62852;-65
2023/07/24 00:07:44;;;;;;;;;;;;;;;25.51;59.68;97172.17;624720;227;62577;-65
2023/07/24 00:10:11;;;;;;;;;;;;;;;25.50;60.99;97176.76;624673;227;62868;-65
2023/07/24 00:12:39;;;;;;;;;;;;;;;25.50;59.99;97173.28;624819;227;62739;-65
2023/07/24 00:15:07;;;;;;;;;;;;;;;25.50;61.13;97175.97;624917;227;63524;-65
2023/07/24 00:17:34;;;;;;;;;;;;;;;25.50;61.44;97167.89;624954;227;65122;-65
2023/07/24 00:20:02;;;;;;;;;;;;;;;25.48;61.07;97162.80;624925;227;64893;-65
2023/07/24 00:22:29;;;;;;;;;;;;;;;25.49;61.79;97172.48;624893;227;64737;-66
2023/07/24 00:24:57;;;;;;;;;;;;;;;25.48;59.80;97170.88;624895;227;65137;-65
2023/07/24 00:27:24;;;;;;;;;;;;;;;25.47;58.44;97172.77;624904;227;64904;-65
2023/07/24 00:29:52;;;;;;;;;;;;;;;25.48;59.64;97173.56;624950;227;62349;-65
2023/07/24 00:32:19;;;;;;;;;;;;;;;25.49;61.96;97177.08;624885;227;65942;-65
2023/07/24 00:34:47;;;;;;;;;;;;;;;25.47;61.04;97166.59;624908;227;64826;-65
2023/07/24 00:37:14;;;;;;;;;;;;;;;25.46;60.71;97163.11;624923;227;64631;-65
2023/07/24 00:39:41;;;;;;;;;;;;;;;25.46;61.42;97163.11;624898;227;65080;-65
2023/07/24 00:42:09;;;;;;;;;;;;;;;25.45;61.12;97158.84;624976;227;62357;-65
2023/07/24 00:44:37;;;;;;;;;;;;;;;25.46;61.28;97157.73;624909;227;64911;-65
2023/07/24 00:47:05;;;;;;;;;;;;;;;25.45;60.04;97158.02;624878;227;64883;-65
2023/07/24 00:49:33;;;;;;;;;;;;;;;25.46;61.17;97160.42;624880;227;64940;-65
2023/07/24 00:52:00;;;;;;;;;;;;;;;25.45;61.35;97164.22;624904;227;64737;-65
2023/07/24 00:54:29;;;;;;;;;;;;;;;25.46;61.50;97165.80;624901;227;65064;-65
2023/07/24 00:56:56;;;;;;;;;;;;;;;25.46;62.31;97159.63;624947;227;62856;-65
2023/07/24 00:59:24;;;;;;;;;;;;;;;25.45;60.85;97161.52;624864;227;62384;-65
2023/07/24 01:01:52;;;;;;;;;;;;;;;25.45;61.42;97169.59;624872;227;62765;-65
2023/07/24 01:04:19;;;;;;;;;;;;;;;25.45;60.87;97166.91;624870;227;62907;-65
2023/07/24 01:06:47;;;;;;;;;;;;;;;25.45;61.12;97158.02;624916;227;62719;-65
2023/07/24 01:09:14;;;;;;;;;;;;;;;25.44;60.85;97157.22;624941;227;65070;-65
2023/07/24 01:11:45;;;;;;;;;;;;;;;25.44;59.05;97159.91;624793;226;62400;-65
2023/07/24 01:14:15;;;;;;;;;;;;;;;25.45;60.31;97152.63;624574;227;64597;-65
2023/07/24 01:16:46;;;;;;;;;;;;;;;25.45;61.25;97158.84;624700;227;65400;-65
2023/07/24 01:19:15;;;;;;;;;;;;;;;25.45;60.84;97158.02;624667;227;64937;-66
2023/07/24 01:21:44;;;;;;;;;;;;;;;25.44;61.76;97145.66;623730;227;64743;-66
2023/07/24 01:24:19;;;;;;;;;;;;;;;25.44;59.55;97153.73;624199;227;64940;-66
2023/07/24 01:26:47;;;;;;;;;;;;;;;25.43;60.66;97150.25;624489;227;65020;-65
2023/07/24 01:29:14;;;;;;;;;;;;;;;25.43;60.56;97144.08;624700;227;64583;-64
2023/07/24 01:31:42;;;;;;;;;;;;;;;25.42;60.48;97142.47;624695;227;65167;-64
2023/07/24 01:34:09;;;;;;;;;;;;;;;25.42;62.15;97148.64;624695;227;64807;-64
2023/07/24 01:36:37;;;;;;;;;;;;;;;25.41;60.69;97152.44;624735;227;64757;-64
2023/07/24 01:39:04;;;;;;;;;;;;;;;25.39;59.48;97151.92;624638;227;65117;-65
2023/07/24 01:41:33;;;;;;;;;;;;;;;25.40;60.17;97153.55;624665;227;64907;-64
2023/07/24 01:44:00;;;;;;;;;;;;;;;25.40;59.79;97152.72;624702;227;62725;-64
2023/07/24 01:46:28;;;;;;;;;;;;;;;25.41;60.60;97154.33;624711;227;62981;-64
2023/07/24 01:48:55;;;;;;;;;;;;;;;25.40;60.25;97150.84;624743;227;62752;-64
2023/07/24 01:51:23;;;;;;;;;;;;;;;25.40;61.60;97148.16;624686;227;64894;-64
2023/07/24 01:53:50;;;;;;;;;;;;;;;25.39;60.51;97145.75;624667;227;65084;-64
2023/07/24 01:56:19;;;;;;;;;;;;;;;25.37;60.89;97143.37;624539;227;64466;-64
2023/07/24 01:58:47;;;;;;;;;;;;;;;25.37;60.87;97146.06;624712;227;64699;-64
2023/07/24 02:01:15;;;;;;;;;;;;;;;25.36;59.67;97144.45;624755;227;63592;-64
2023/07/24 02:03:43;;;;;;;;;;;;;;;25.37;58.99;97146.06;624659;227;65304;-64
2023/07/24 02:06:12;;;;;;;;;;;;;;;25.37;61.30;97134.48;624677;227;65438;-66
2023/07/24 02:08:40;;;;;;;;;;;;;;;25.36;60.98;97141.77;624703;227;62374;-65
2023/07/24 02:11:08;;;;;;;;;;;;;;;25.36;61.08;97136.38;624650;226;64645;-65
2023/07/24 02:13:36;;;;;;;;;;;;;;;25.35;58.97;97129.42;624708;227;62268;-65
2023/07/24 02:16:03;;;;;;;;;;;;;;;25.37;61.68;97135.30;624465;227;62680;-64
2023/07/24 02:18:31;;;;;;;;;;;;;;;25.35;58.97;97134.80;624644;227;62693;-64
2023/07/24 02:20:58;;;;;;;;;;;;;;;25.34;56.83;97135.87;624680;227;64774;-64
2023/07/24 02:23:26;;;;;;;;;;;;;;;25.35;58.93;97134.00;624685;227;64883;-66
2023/07/24 02:25:53;;;;;;;;;;;;;;;25.35;59.81;97136.69;624569;225;64870;-63
2023/07/24 02:28:21;;;;;;;;;;;;;;;25.34;56.57;97135.08;618315;227;64767;-63
2023/07/24 02:30:51;;;;;;;;;;;;;;;25.31;53.94;97133.78;624561;227;62956;-63
2023/07/24 02:33:19;;;;;;;;;;;;;;;25.33;59.19;97130.80;624643;227;64756;-63
2023/07/24 02:35:46;;;;;;;;;;;;;;;25.32;58.95;97140.77;624652;227;65369;-63
2023/07/24 02:38:15;;;;;;;;;;;;;;;25.31;58.26;97138.36;624635;227;62657;-63
2023/07/24 02:40:42;;;;;;;;;;;;;;;25.30;57.92;97140.27;624663;227;64893;-63
2023/07/24 02:43:10;;;;;;;;;;;;;;;25.30;62.23;97139.47;624678;227;62591;-62
2023/07/24 02:45:39;;;;;;;;;;;;;;;25.26;56.66;97131.17;624687;227;65842;-63
2023/07/24 02:48:06;;;;;;;;;;;;;;;25.26;59.17;97131.17;624676;227;64849;-63
2023/07/24 02:50:34;;;;;;;;;;;;;;;25.27;62.01;97137.38;624674;227;64562;-63
2023/07/24 02:53:02;;;;;;;;;;;;;;;25.26;61.73;97133.86;624722;227;65175;-63
2023/07/24 02:55:29;;;;;;;;;;;;;;;25.24;57.88;97133.38;624689;227;62569;-63
2023/07/24 02:57:57;;;;;;;;;;;;;;;25.24;53.33;97149.52;624675;227;64792;-63
2023/07/24 03:00:24;;;;;;;;;;;;;;;25.23;56.45;97143.31;624634;227;65087;-63
2023/07/24 03:02:53;;;;;;;;;;;;;;;25.23;57.76;97140.63;624707;227;64853;-62
2023/07/24 03:05:20;;;;;;;;;;;;;;;25.21;54.41;97128.59;624674;227;64603;-62
2023/07/24 03:07:48;;;;;;;;;;;;;;;25.22;59.76;97127.49;624721;227;64983;-62
2023/07/24 03:10:15;;;;;;;;;;;;;;;25.19;58.88;97131.57;624646;227;64774;-63
2023/07/24 03:12:43;;;;;;;;;;;;;;;25.19;57.59;97130.78;624585;226;62381;-63
2023/07/24 03:15:12;;;;;;;;;;;;;;;25.19;53.21;97133.47;618907;227;66702;-64
2023/07/24 03:17:40;;;;;;;;;;;;;;;25.22;59.83;97147.11;624628;227;65665;-64
2023/07/24 03:20:10;;;;;;;;;;;;;;;25.20;57.08;97145.81;624706;227;62591;-63
2023/07/24 03:22:38;;;;;;;;;;;;;;;25.17;54.45;97141.81;624658;227;65873;-64
2023/07/24 03:25:07;;;;;;;;;;;;;;;25.16;54.80;97142.92;624614;227;63932;-64
2023/07/24 03:27:35;;;;;;;;;;;;;;;25.16;58.02;97139.44;624690;227;64785;-64
2023/07/24 03:30:03;;;;;;;;;;;;;;;25.16;58.34;97137.55;624695;227;62762;-64
2023/07/24 03:32:31;;;;;;;;;;;;;;;25.15;55.35;97133.23;624732;227;66290;-64
2023/07/24 03:34:58;;;;;;;;;;;;;;;25.16;59.47;97136.75;624711;227;64588;-64
2023/07/24 03:37:25;;;;;;;;;;;;;;;25.14;54.18;97146.97;624699;227;65243;-64
2023/07/24 03:39:53;;;;;;;;;;;;;;;25.15;54.49;97148.58;624649;227;65169;-64
2023/07/24 03:42:28;;;;;;;;;;;;;;;25.14;53.47;97152.34;624656;227;64809;-63
2023/07/24 03:44:56;;;;;;;;;;;;;;;25.12;53.82;97149.94;624753;227;63245;-63
2023/07/24 03:47:24;;;;;;;;;;;;;;;25.11;55.63;97136.80;624741;227;65181;-62
2023/07/24 03:49:51;;;;;;;;;;;;;;;25.11;57.99;97128.73;624686;227;64786;-62
2023/07/24 03:52:19;;;;;;;;;;;;;;;25.10;56.70;97135.19;624660;227;65378;-63
2023/07/24 03:54:46;;;;;;;;;;;;;;;25.11;58.75;97129.52;624707;227;63003;-63
2023/07/24 03:57:14;;;;;;;;;;;;;;;25.09;52.35;97129.02;624686;227;62537;-63
2023/07/24 03:59:41;;;;;;;;;;;;;;;25.09;52.26;97133.60;624777;227;65536;-63
2023/07/24 04:02:09;;;;;;;;;;;;;;;25.09;53.44;97125.53;624668;227;65169;-62
2023/07/24 04:04:36;;;;;;;;;;;;;;;25.08;55.75;97132.02;624592;227;62580;-62
2023/07/24 04:07:04;;;;;;;;;;;;;;;25.06;54.14;97137.67;624611;227;63127;-63
2023/07/24 04:09:32;;;;;;;;;;;;;;;25.04;52.88;97134.48;624738;227;65227;-63
2023/07/24 04:11:59;;;;;;;;;;;;;;;25.04;52.86;97142.54;624734;226;64715;-63
2023/07/24 04:14:27;;;;;;;;;;;;;;;25.03;51.86;97141.75;624875;227;65380;-63
2023/07/24 04:16:55;;;;;;;;;;;;;;;25.02;52.69;97136.68;624904;227;65190;-63
2023/07/24 04:19:23;;;;;;;;;;;;;;;25.00;53.37;97138.86;624885;227;64799;-63
2023/07/24 04:21:50;;;;;;;;;;;;;;;25.00;54.01;97139.66;624887;227;65685;-63
2023/07/24 04:24:18;;;;;;;;;;;;;;;25.02;56.19;97145.54;624982;227;65168;-63
2023/07/24 04:26:45;;;;;;;;;;;;;;;25.05;52.37;97148.73;624884;227;64695;-63
2023/07/24 04:29:12;;;;;;;;;;;;;;;25.03;55.98;97130.99;624850;227;65396;-63
2023/07/24 04:31:40;;;;;;;;;;;;;;;25.03;52.60;97140.95;624864;227;65467;-63
2023/07/24 04:34:07;;;;;;;;;;;;;;;25.03;55.58;97139.06;624846;227;64716;-63
2023/07/24 04:36:35;;;;;;;;;;;;;;;25.01;54.27;97135.86;624924;227;65393;-63
2023/07/24 04:39:02;;;;;;;;;;;;;;;25.01;53.72;97133.17;624903;227;63259;-63
2023/07/24 04:41:30;;;;;;;;;;;;;;;25.00;54.00;97138.86;624882;227;64618;-63
2023/07/24 04:43:57;;;;;;;;;;;;;;;25.01;57.11;97133.17;624880;227;65095;-63
2023/07/24 04:46:25;;;;;;;;;;;;;;;25.00;54.72;97136.97;624886;227;65247;-63
2023/07/24 04:48:52;;;;;;;;;;;;;;;24.99;53.00;97121.11;624929;227;62510;-63
2023/07/24 04:51:20;;;;;;;;;;;;;;;24.98;53.66;97123.01;624878;227;64932;-63
2023/07/24 04:53:47;;;;;;;;;;;;;;;24.97;53.36;97123.32;624890;227;65167;-63
2023/07/24 04:56:15;;;;;;;;;;;;;;;24.97;58.33;97126.01;624867;227;64926;-63
2023/07/24 04:58:42;;;;;;;;;;;;;;;24.96;58.03;97125.22;624877;227;63379;-63
2023/07/24 05:01:10;;;;;;;;;;;;;;;24.96;54.82;97125.22;624895;227;62842;-63
2023/07/24 05:03:38;;;;;;;;;;;;;;;24.95;56.53;97131.66;624854;227;64527;-63
2023/07/24 05:06:05;;;;;;;;;;;;;;;24.96;60.34;97127.91;624860;227;63319;-63
2023/07/24 05:08:33;;;;;;;;;;;;;;;24.96;58.16;97138.66;624805;227;63141;-63
2023/07/24 05:11:00;;;;;;;;;;;;;;;24.95;55.48;97130.88;624850;227;62692;-63
2023/07/24 05:13:28;;;;;;;;;;;;;;;24.96;58.33;97135.14;624886;227;63231;-63
2023/07/24 05:15:55;;;;;;;;;;;;;;;24.95;57.23;97131.66;624882;227;63068;-63
2023/07/24 05:18:23;;;;;;;;;;;;;;;24.96;53.94;97135.14;624885;227;62677;-63
2023/07/24 05:20:52;;;;;;;;;;;;;;;24.96;56.35;97135.97;624878;227;45396;-64
2023/07/24 05:23:19;;;;;;;;;;;;;;;24.96;57.06;97129.77;624895;227;65186;-64
2023/07/24 05:25:47;;;;;;;;;;;;;;;24.95;56.48;97126.29;624924;227;64685;-64
2023/07/24 05:28:15;;;;;;;;;;;;;;;24.95;57.24;97126.29;624783;227;65768;-64
2023/07/24 05:30:42;;;;;;;;;;;;;;;24.94;55.86;97127.39;624461;227;65123;-64
2023/07/24 05:33:09;;;;;;;;;;;;;;;24.93;56.66;97125.78;624865;227;64711;-64
2023/07/24 05:35:37;;;;;;;;;;;;;;;24.92;57.56;97129.56;624880;227;65536;-64
2023/07/24 05:38:05;;;;;;;;;;;;;;;24.94;58.47;97132.77;621160;227;64916;-64
2023/07/24 05:40:32;;;;;;;;;;;;;;;24.94;57.09;97135.45;621063;228;64731;-64
2023/07/24 05:42:59;;;;;;;;;;;;;;;24.92;57.55;97129.56;621023;228;65858;-64
2023/07/24 05:45:27;;;;;;;;;;;;;;;24.92;57.81;97140.32;620951;228;63446;-64
2023/07/24 05:47:55;;;;;;;;;;;;;;;24.94;61.02;97137.35;621042;228;62637;-64
2023/07/24 05:50:22;;;;;;;;;;;;;;;24.92;58.95;97134.95;620995;228;63274;-62
2023/07/24 05:52:50;;;;;;;;;;;;;;;24.92;59.79;97131.47;620998;228;63165;-62
2023/07/24 05:55:19;;;;;;;;;;;;;;;24.89;57.51;97107.86;621012;228;62595;-60
2023/07/24 05:57:46;;;;;;;;;;;;;;;24.89;59.44;97108.66;620332;228;63171;-60
2023/07/24 06:00:14;;;;;;;;;;;;;;;24.90;56.98;97109.45;620673;228;62832;-60
2023/07/24 06:02:44;;;;;;;;;;;;;;;24.91;57.81;97113.72;621066;228;62091;-59
2023/07/24 06:05:12;;;;;;;;;;;;;;;24.91;56.77;97116.41;620915;228;62755;-59
2023/07/24 06:07:40;;;;;;;;;;;;;;;24.91;56.37;97119.09;620596;227;64981;-60
2023/07/24 06:10:08;;;;;;;;;;;;;;;24.91;56.15;97119.92;617374;229;64735;-59
2023/07/24 06:12:37;;;;;;;;;;;;;;;24.91;55.67;97103.78;617419;229;65497;-59
2023/07/24 06:15:05;;;;;;;;;;;;;;;24.92;55.64;97112.64;617413;230;64800;-59
2023/07/24 06:17:33;;;;;;;;;;;;;;;24.93;56.49;97112.34;617505;230;64613;-59
2023/07/24 06:20:00;;;;;;;;;;;;;;;24.92;56.87;97100.00;617407;230;65184;-59
2023/07/24 06:22:28;;;;;;;;;;;;;;;24.93;57.57;97104.27;617388;230;65003;-59
2023/07/24 06:24:55;;;;;;;;;;;;;;;24.93;56.67;97098.09;617431;230;64818;-59
2023/07/24 06:27:23;;;;;;;;;;;;;;;24.95;58.02;97096.72;617340;230;64099;-59
2023/07/24 06:29:50;;;;;;;;;;;;;;;24.96;57.94;97094.82;617425;230;65141;-58
2023/07/24 06:32:18;;;;;;;;;;;;;;;24.98;56.06;97085.37;617470;230;64789;-60
2023/07/24 06:34:45;;;;;;;;;;;;;;;25.00;58.46;97088.56;617327;230;65365;-60
2023/07/24 06:37:13;;;;;;;;;;;;;;;25.00;59.59;97085.88;617379;230;63061;-60
2023/07/24 06:39:40;;;;;;;;;;;;;;;25.00;59.69;97091.26;617429;230;62636;-60
2023/07/24 06:42:08;;;;;;;;;;;;;;;25.00;58.87;97093.16;617340;230;63012;-59
2023/07/24 06:44:35;;;;;;;;;;;;;;;24.99;58.58;97089.67;617454;230;63060;-59
2023/07/24 06:47:03;;;;;;;;;;;;;;;25.01;59.38;97089.36;617425;230;64881;-59
2023/07/24 06:49:30;;;;;;;;;;;;;;;25.01;59.89;97082.09;617299;230;65739;-59
2023/07/24 06:51:57;;;;;;;;;;;;;;;25.01;59.97;97092.05;617429;230;63023;-59
2023/07/24 06:54:25;;;;;;;;;;;;;;;25.01;59.82;97089.36;617373;230;64824;-59
2023/07/24 06:56:52;;;;;;;;;;;;;;;25.01;60.70;97090.16;617404;230;63299;-59
2023/07/24 06:59:20;;;;;;;;;;;;;;;25.01;57.91;97084.77;617334;230;63586;-59
2023/07/24 07:01:47;;;;;;;;;;;;;;;25.03;60.17;97085.28;617347;230;62618;-59
2023/07/24 07:04:15;;;;;;;;;;;;;;;25.03;60.88;97082.59;617376;230;65488;-59
2023/07/24 07:06:42;;;;;;;;;;;;;;;25.03;60.52;97074.53;617454;230;64976;-61
2023/07/24 07:09:10;;;;;;;;;;;;;;;25.05;57.81;97068.08;617415;230;64761;-59
2023/07/24 07:11:38;;;;;;;;;;;;;;;25.11;60.82;97067.68;617378;229;65368;-59
2023/07/24 07:14:08;;;;;;;;;;;;;;;25.10;62.02;97060.72;617422;230;65270;-59
2023/07/24 07:16:35;;;;;;;;;;;;;;;25.09;61.38;97055.62;617342;230;63440;-60
2023/07/24 07:19:03;;;;;;;;;;;;;;;25.09;61.09;97059.10;617446;230;65075;-61
2023/07/24 07:21:30;;;;;;;;;;;;;;;25.09;57.49;97055.62;617363;230;65189;-60
2023/07/24 07:23:58;;;;;;;;;;;;;;;25.11;56.05;97064.20;617388;230;64738;-61
2023/07/24 07:26:26;;;;;;;;;;;;;;;25.13;55.55;97062.81;621622;227;65613;-61
2023/07/24 07:28:54;;;;;;;;;;;;;;;25.16;55.95;97066.83;622336;228;63083;-60
2023/07/24 07:31:22;;;;;;;;;;;;;;;25.17;57.59;97060.34;622233;228;64708;-61
2023/07/24 07:33:49;;;;;;;;;;;;;;;25.17;56.15;97063.03;622308;228;65461;-61
2023/07/24 07:36:17;;;;;;;;;;;;;;;25.19;56.00;97060.86;622385;228;65159;-61
2023/07/24 07:38:45;;;;;;;;;;;;;;;25.18;56.29;97060.06;622226;227;64780;-61
2023/07/24 07:41:12;;;;;;;;;;;;;;;25.21;56.42;97056.77;622501;227;66395;-61
2023/07/24 07:43:40;;;;;;;;;;;;;;;25.22;56.58;97057.56;622887;227;63950;-61
2023/07/24 07:46:08;;;;;;;;;;;;;;;25.23;56.82;97053.77;624532;227;62611;-61
2023/07/24 07:48:35;;;;;;;;;;;;;;;25.23;56.97;97051.87;624617;227;65688;-60
2023/07/24 07:51:03;;;;;;;;;;;;;;;25.23;56.49;97057.25;624615;227;65174;-60
2023/07/24 07:53:31;;;;;;;;;;;;;;;25.24;57.05;97052.70;624534;227;63563;-60
2023/07/24 07:56:02;;;;;;;;;;;;;;;25.25;57.33;97063.14;624597;227;65351;-60
2023/07/24 07:58:32;;;;;;;;;;;;;;;25.26;57.43;97055.86;624552;227;65267;-63
2023/07/24 08:01:00;;;;;;;;;;;;;;;25.27;57.60;97059.37;624591;227;64733;-62
2023/07/24 08:03:28;;;;;;;;;;;;;;;25.28;57.72;97050.20;624471;227;65434;-61
2023/07/24 08:05:58;;;;;;;;;;;;;;;25.28;57.74;97050.20;624555;227;64961;-62
2023/07/24 08:08:25;;;;;;;;;;;;;;;25.29;57.82;97047.22;624460;227;64698;-62
2023/07/24 08:10:53;;;;;;;;;;;;;;;25.30;57.81;97053.39;624530;227;65374;-61
2023/07/24 08:13:20;;;;;;;;;;;;;;;25.31;57.45;97055.77;624637;226;65586;-62
2023/07/24 08:15:48;;;;;;;;;;;;;;;25.31;57.67;97046.91;624830;227;62556;-60
2023/07/24 08:18:16;;;;;;;;;;;;;;;25.32;58.01;97045.80;624777;227;63126;-60
2023/07/24 08:20:43;;;;;;;;;;;;;;;25.32;58.24;97043.94;624773;227;64016;-59
2023/07/24 08:23:11;;;;;;;;;;;;;;;25.32;58.24;97045.80;624693;227;64571;-59
2023/07/24 08:25:38;;;;;;;;;;;;;;;25.32;58.33;97046.63;624840;227;65418;-61
2023/07/24 08:28:06;;;;;;;;;;;;;;;25.32;58.26;97041.24;624818;227;65284;-60
2023/07/24 08:30:34;;;;;;;;;;;;;;;25.34;56.12;97043.62;624871;227;64580;-60
2023/07/24 08:33:02;;;;;;;;;;;;;;;25.34;57.41;97044.41;624807;227;65047;-60
2023/07/24 08:35:29;;;;;;;;;;;;;;;25.35;58.16;97048.71;624734;227;65213;-60
2023/07/24 08:37:57;;;;;;;;;;;;;;;25.35;58.14;97046.02;624790;227;63315;-60
2023/07/24 08:40:24;;;;;;;;;;;;;;;25.36;57.49;97049.50;624850;227;65592;-61
2023/07/24 08:42:52;;;;;;;;;;;;;;;25.35;55.93;97035.27;624798;227;63107;-61
2023/07/24 08:45:20;;;;;;;;;;;;;;;25.38;56.68;97033.88;624774;227;62603;-60
2023/07/24 08:47:48;;;;;;;;;;;;;;;25.41;53.69;97038.65;624790;227;63351;-59
2023/07/24 08:50:17;;;;;;;;;;;;;;;25.42;56.03;97035.64;624706;227;63207;-60
2023/07/24 08:52:46;;;;;;;;;;;;;;;25.43;57.61;97039.95;624839;227;64874;-60
2023/07/24 08:55:14;;;;;;;;;;;;;;;25.42;56.65;97030.27;624854;227;65553;-61
2023/07/24 08:57:41;;;;;;;;;;;;;;;25.46;57.58;97033.17;624710;227;63119;-59
2023/07/24 09:00:09;;;;;;;;;;;;;;;25.46;54.63;97033.96;624811;227;62651;-59
2023/07/24 09:02:36;;;;;;;;;;;;;;;25.49;54.20;97029.88;624738;227;65404;-61
2023/07/24 09:05:05;;;;;;;;;;;;;;;25.49;52.97;97035.26;624770;227;65197;-60
2023/07/24 09:07:32;;;;;;;;;;;;;;;25.54;53.79;97039.75;624827;227;66117;-59
2023/07/24 09:10:00;;;;;;;;;;;;;;;25.54;51.72;97031.68;624781;227;65303;-60
2023/07/24 09:12:27;;;;;;;;;;;;;;;25.56;52.94;97032.94;624641;226;65185;-59
2023/07/24 09:15:02;;;;;;;;;;;;;;;25.58;52.58;97029.97;624623;227;64781;-60
2023/07/24 09:17:30;;;;;;;;;;;;;;;25.59;52.24;97021.61;624540;227;65832;-60
2023/07/24 09:19:58;;;;;;;;;;;;;;;25.61;54.67;97023.98;624683;227;65004;-60
2023/07/24 09:22:29;;;;;;;;;;;;;;;25.61;55.88;97015.91;624587;227;64771;-61
2023/07/24 09:24:57;;;;;;;;;;;;;;;25.62;57.68;97018.31;624532;227;63966;-62
2023/07/24 09:27:26;;;;;;;;;;;;;;;25.62;57.31;97020.21;624548;227;63453;-61
2023/07/24 09:29:54;;;;;;;;;;;;;;;25.63;57.83;97019.10;624569;227;64894;-61
2023/07/24 09:32:22;;;;;;;;;;;;;;;25.63;57.60;97008.34;624583;227;65392;-61
2023/07/24 09:34:56;;;;;;;;;;;;;;;25.64;58.91;97017.99;624684;227;65146;-62
2023/07/24 09:37:26;;;;;;;;;;;;;;;25.63;57.37;97008.34;624575;227;62704;-60
2023/07/24 09:39:53;;;;;;;;;;;;;;;25.61;54.17;97003.24;622687;227;65388;-60
2023/07/24 09:42:32;;;;;;;;;;;;;;;25.63;56.56;97003.75;624560;227;65301;-59
2023/07/24 09:44:59;;;;;;;;;;;;;;;25.63;55.65;97002.95;624616;227;64710;-59
2023/07/24 09:47:27;;;;;;;;;;;;;;;25.65;57.44;96995.38;624520;227;65111;-59
2023/07/24 09:49:54;;;;;;;;;;;;;;;25.66;57.77;96997.75;624565;227;65212;-59
2023/07/24 09:52:22;;;;;;;;;;;;;;;25.67;58.43;96993.98;624544;227;64798;-59
2023/07/24 09:54:55;;;;;;;;;;;;;;;25.67;58.99;96987.78;624546;227;63420;-59
2023/07/24 09:57:24;;;;;;;;;;;;;;;25.67;58.89;96988.60;624598;227;63072;-59
2023/07/24 09:59:53;;;;;;;;;;;;;;;25.68;59.55;96987.49;624500;227;62689;-59
2023/07/24 10:02:22;;;;;;;;;;;;;;;25.68;59.59;96984.02;624664;227;65818;-59
2023/07/24 10:04:49;;;;;;;;;;;;;;;25.68;59.25;96978.62;624484;227;65035;-59
2023/07/24 10:07:21;;;;;;;;;;;;;;;25.69;60.21;96970.23;624530;227;62686;-59
2023/07/24 10:09:47;;;;;;;;;;;;;;;25.68;59.90;96971.34;624544;227;62896;-60
2023/07/24 10:12:16;;;;;;;;;;;;;;;25.69;60.01;96964.85;624638;226;64948;-63
2023/07/24 10:14:44;;;;;;;;;;;;;;;25.67;54.72;96963.56;624555;227;63465;-62
2023/07/24 10:17:12;;;;;;;;;;;;;;;25.65;53.03;96963.88;624582;227;62437;-63
2023/07/24 10:19:46;;;;;;;;;;;;;;;25.68;52.58;96965.96;624624;227;62832;-62
2023/07/24 10:22:20;;;;;;;;;;;;;;;25.69;50.80;96964.85;624573;227;64755;-61
2023/07/24 10:24:48;;;;;;;;;;;;;;;25.69;50.27;96956.78;624651;227;62995;-62
2023/07/24 10:27:15;;;;;;;;;;;;;;;25.72;50.48;96962.66;624624;227;64944;-62
2023/07/24 10:29:46;;;;;;;;;;;;;;;25.71;50.41;96959.18;624585;227;62672;-62
2023/07/24 10:32:18;;;;;;;;;;;;;;;25.72;50.08;96952.69;624417;227;62868;-63
2023/07/24 10:34:47;;;;;;;;;;;;;;;25.75;50.17;96954.77;624618;227;62936;-62
2023/07/24 10:37:16;;;;;;;;;;;;;;;25.76;50.90;96951.00;624200;227;62619;-62
2023/07/24 10:39:45;;;;;;;;;;;;;;;25.77;51.10;96949.88;624688;227;63133;-62
2023/07/24 10:42:13;;;;;;;;;;;;;;;25.78;50.38;96940.73;624641;227;63380;-62
2023/07/24 10:44:41;;;;;;;;;;;;;;;25.79;50.56;96938.83;624602;227;64816;-63
2023/07/24 10:47:08;;;;;;;;;;;;;;;25.80;49.60;96938.50;624606;227;65379;-62
2023/07/24 10:49:36;;;;;;;;;;;;;;;25.82;49.32;96927.45;624617;227;65187;-62
2023/07/24 10:52:03;;;;;;;;;;;;;;;25.82;49.41;96927.45;624674;227;64521;-63
2023/07/24 10:54:32;;;;;;;;;;;;;;;25.83;50.08;96921.77;624644;227;65548;-60
2023/07/24 10:57:00;;;;;;;;;;;;;;;25.83;49.06;96918.26;624595;227;65011;-60
2023/07/24 10:59:38;;;;;;;;;;;;;;;25.78;49.25;96913.81;624541;227;62596;-61
2023/07/24 11:02:05;;;;;;;;;;;;;;;25.76;49.19;96910.62;624648;227;62976;-60
2023/07/24 11:04:33;;;;;;;;;;;;;;;25.75;49.21;96910.91;624569;227;63064;-60
2023/07/24 11:07:01;;;;;;;;;;;;;;;25.74;49.58;96907.43;624658;227;64605;-60
2023/07/24 11:09:37;;;;;;;;;;;;;;;25.73;49.07;96911.23;624607;227;63227;-60
2023/07/24 11:12:14;;;;;;;;;;;;;;;25.73;49.12;96903.16;624355;226;63197;-60
2023/07/24 11:14:54;;;;;;;;;;;;;;;25.72;49.14;96896.16;624652;227;64743;-60
2023/07/24 11:17:21;;;;;;;;;;;;;;;25.72;50.43;96896.16;624621;227;65448;-60
2023/07/24 11:19:48;;;;;;;;;;;;;;;25.72;49.51;96898.86;624603;227;62891;-60
2023/07/24 11:22:16;;;;;;;;;;;;;;;25.73;50.41;96899.64;624518;227;63491;-60
2023/07/24 11:24:44;;;;;;;;;;;;;;;25.71;49.52;96891.89;624500;227;67224;-60
2023/07/24 11:27:14;;;;;;;;;;;;;;;25.72;49.90;96887.30;624436;227;48007;-60
2023/07/24 11:29:44;;;;;;;;;;;;;;;25.71;49.80;96886.51;624515;227;62671;-61
2023/07/24 11:32:11;;;;;;;;;;;;;;;25.69;50.34;96878.73;624341;227;67184;-62
2023/07/24 11:34:39;;;;;;;;;;;;;;;25.75;48.90;96884.78;624538;227;66999;-62
2023/07/24 11:37:06;;;;;;;;;;;;;;;25.79;48.75;96879.61;624485;227;64720;-63
2023/07/24 11:39:34;;;;;;;;;;;;;;;25.80;48.91;96879.28;624477;227;67277;-62
2023/07/24 11:42:02;;;;;;;;;;;;;;;25.83;51.78;96878.70;624476;227;66812;-60
2023/07/24 11:44:29;;;;;;;;;;;;;;;25.85;54.11;96873.81;624486;227;62696;-60
2023/07/24 11:47:05;;;;;;;;;;;;;;;25.86;54.24;96872.73;624496;227;67277;-59
2023/07/24 11:49:33;;;;;;;;;;;;;;;25.85;49.12;96873.81;624491;227;66786;-58
2023/07/24 11:52:02;;;;;;;;;;;;;;;25.88;47.92;96870.51;624507;227;64715;-58
2023/07/24 11:54:29;;;;;;;;;;;;;;;25.85;47.62;96870.33;623876;227;67236;-59
2023/07/24 11:56:57;;;;;;;;;;;;;;;25.84;47.72;96869.55;624465;227;67390;-59
2023/07/24 11:59:25;;;;;;;;;;;;;;;25.85;47.16;96860.35;624434;227;65188;-60
2023/07/24 12:01:53;;;;;;;;;;;;;;;25.86;46.77;96864.66;624459;227;64986;-60
2023/07/24 12:04:20;;;;;;;;;;;;;;;25.88;47.17;96862.43;624459;227;65106;-59
2023/07/24 12:06:48;;;;;;;;;;;;;;;25.89;46.86;96866.73;624461;227;62599;-59
2023/07/24 12:09:15;;;;;;;;;;;;;;;25.89;46.13;96864.04;624397;227;64970;-59
2023/07/24 12:11:43;;;;;;;;;;;;;;;25.88;45.97;96862.43;624488;226;64917;-59
2023/07/24 12:14:11;;;;;;;;;;;;;;;25.89;45.59;96864.04;624751;227;64754;-59
2023/07/24 12:16:40;;;;;;;;;;;;;;;25.91;45.27;96858.33;623808;227;45093;-59
2023/07/24 12:19:08;;;;;;;;;;;;;;;25.90;44.33;96845.98;622109;227;67050;-59
2023/07/24 12:21:35;;;;;;;;;;;;;;;25.90;43.90;96852.16;621425;227;64701;-59
2023/07/24 12:24:02;;;;;;;;;;;;;;;25.89;43.59;96850.58;621809;227;67421;-59
2023/07/24 12:26:30;;;;;;;;;;;;;;;25.90;42.43;96846.77;621171;227;67013;-59
2023/07/24 12:29:00;;;;;;;;;;;;;;;25.89;42.81;96845.19;619919;227;62685;-60
2023/07/24 12:31:26;;;;;;;;;;;;;;;25.90;42.74;96840.59;617770;227;65025;-60
2023/07/24 12:33:54;;;;;;;;;;;;;;;25.90;43.20;96844.08;622032;227;64923;-61
2023/07/24 12:36:21;;;;;;;;;;;;;;;25.93;43.11;96844.58;621805;227;64537;-60
2023/07/24 12:38:49;;;;;;;;;;;;;;;25.92;43.08;96843.78;622081;227;67255;-61
2023/07/24 12:41:16;;;;;;;;;;;;;;;25.95;43.15;96842.38;619472;227;64957;-60
2023/07/24 12:43:45;;;;;;;;;;;;;;;25.95;43.69;96837.00;617477;227;64719;-60
2023/07/24 12:46:12;;;;;;;;;;;;;;;25.94;42.33;96836.17;621280;227;67227;-60
2023/07/24 12:48:39;;;;;;;;;;;;;;;25.93;42.51;96837.29;620079;227;66911;-60
2023/07/24 12:51:07;;;;;;;;;;;;;;;25.95;42.70;96839.69;621162;227;62661;-60